Time;durP1;ratioP1;P1;durP2;ratioP2;P2;SDS_P1;SDS_P2;PMS_P1;PMS_P2;Temp;Humidity;BMP_temperature;BMP_pressure;BME280_temperature;BME280_humidity;BME280_pressure;Samples;Min_cycle;Max_cycle;Signal;HPM_P1;HPM_P2
2022/11/13 00:00:57;;;;;;;61.70;33.90;;;6.80;99.90;;;;;;5113973;28;20656;-73
2022/11/13 00:03:23;;;;;;;56.00;31.90;;;6.80;99.90;;;;;;5113808;28;20174;-73
2022/11/13 00:05:59;;;;;;;60.00;33.10;;;6.70;99.90;;;;;;5113995;28;20282;-73
2022/11/13 00:08:25;;;;;;;53.83;34.92;;;6.70;99.90;;;;;;5095515;28;20530;-73
2022/11/13 00:10:50;;;;;;;54.10;34.57;;;6.70;99.90;;;;;;5095549;28;20207;-73
2022/11/13 00:13:16;;;;;;;53.60;36.40;;;6.60;99.90;;;;;;5096385;28;20174;-72
2022/11/13 00:15:41;;;;;;;60.00;36.30;;;6.60;99.90;;;;;;5099167;28;20223;-73
2022/11/13 00:18:07;;;;;;;52.00;35.10;;;6.50;99.90;;;;;;5099268;28;20703;-73
2022/11/13 00:20:34;;;;;;;64.33;36.57;;;6.50;99.90;;;;;;5099105;28;20302;-73
2022/11/13 00:23:00;;;;;;;54.15;35.40;;;6.50;99.90;;;;;;5099088;28;20184;-72
2022/11/13 00:25:25;;;;;;;52.00;35.73;;;6.50;99.90;;;;;;5098779;28;20227;-72
2022/11/13 00:27:51;;;;;;;60.70;35.40;;;6.50;99.90;;;;;;5117327;28;20569;-73
2022/11/13 00:30:16;;;;;;;68.63;41.50;;;6.50;99.90;;;;;;5098845;28;20212;-72
2022/11/13 00:32:42;;;;;;;60.87;38.97;;;6.40;99.90;;;;;;5099070;28;20221;-73
2022/11/13 00:35:08;;;;;;;64.47;37.40;;;6.40;99.90;;;;;;5098707;28;20227;-73
2022/11/13 00:37:33;;;;;;;62.13;38.83;;;6.40;99.90;;;;;;5117168;28;20597;-72
2022/11/13 00:39:59;;;;;;;56.33;37.63;;;6.30;99.90;;;;;;5098886;28;20200;-72
2022/11/13 00:42:24;;;;;;;63.13;39.93;;;6.30;99.90;;;;;;5116943;28;20172;-72
2022/11/13 00:44:50;;;;;;;57.80;38.20;;;6.20;99.90;;;;;;5116802;28;20190;-73
2022/11/13 00:47:16;;;;;;;53.27;37.33;;;6.20;99.90;;;;;;5098606;28;20175;-73
2022/11/13 00:49:41;;;;;;;61.77;38.97;;;6.20;99.90;;;;;;5116826;28;20455;-72
2022/11/13 00:52:07;;;;;;;57.87;37.33;;;6.10;99.90;;;;;;5098523;28;20183;-73
2022/11/13 00:54:32;;;;;;;56.43;35.77;;;6.10;99.90;;;;;;5116666;28;20211;-73
2022/11/13 00:56:58;;;;;;;59.03;36.20;;;6.10;99.90;;;;;;5098750;28;20625;-73
2022/11/13 00:59:24;;;;;;;54.20;33.30;;;6.10;99.90;;;;;;5116579;28;20239;-72
2022/11/13 01:01:49;;;;;;;58.00;31.80;;;6.10;99.90;;;;;;5117079;28;20176;-73
2022/11/13 01:04:15;;;;;;;44.17;28.73;;;6.10;99.90;;;;;;5116492;28;20176;-73
2022/11/13 01:06:41;;;;;;;40.40;27.00;;;6.10;99.90;;;;;;5098571;28;20172;-73
2022/11/13 01:09:06;;;;;;;48.23;27.87;;;6.10;99.90;;;;;;5116400;28;20578;-73
2022/11/13 01:11:32;;;;;;;37.83;25.97;;;6.00;99.90;;;;;;5098410;28;20202;-73
2022/11/13 01:13:57;;;;;;;35.47;24.83;;;6.00;99.90;;;;;;5116448;28;20211;-73
2022/11/13 01:16:26;;;;;;;47.33;27.97;;;5.90;99.90;;;;;;5097958;28;20312;-73
2022/11/13 01:18:55;;;;;;;48.95;30.10;;;5.90;99.90;;;;;;5098060;28;20207;-73
2022/11/13 01:21:23;;;;;;;44.78;28.55;;;5.80;99.90;;;;;;5116532;28;20195;-73
2022/11/13 01:23:49;;;;;;;49.88;30.30;;;5.80;99.90;;;;;;5097818;28;20644;-73
2022/11/13 01:26:19;;;;;;;46.08;28.45;;;5.80;99.90;;;;;;5116256;28;20240;-73
2022/11/13 01:28:45;;;;;;;47.45;29.73;;;5.80;99.90;;;;;;5097896;28;20164;-73
2022/11/13 01:31:15;;;;;;;45.38;28.25;;;5.70;99.90;;;;;;5097519;28;20264;-73
2022/11/13 01:33:41;;;;;;;41.92;25.95;;;5.70;99.90;;;;;;5097726;28;20263;-72
2022/11/13 01:36:16;;;;;;;53.73;26.67;;;5.80;99.90;;;;;;5097683;28;20287;-72
2022/11/13 01:38:42;;;;;;;46.20;27.70;;;5.80;99.90;;;;;;5116010;28;20436;-73
2022/11/13 01:41:20;;;;;;;48.20;27.80;;;5.80;99.90;;;;;;5097647;28;20231;-72
2022/11/13 01:43:46;;;;;;;49.83;27.83;;;5.80;99.90;;;;;;5097638;28;20172;-73
2022/11/13 01:46:17;;;;;;;43.88;25.85;;;5.70;99.90;;;;;;5115956;28;20203;-73
2022/11/13 01:48:55;;;;;;;49.38;29.13;;;5.70;99.90;;;;;;5115779;28;20569;-72
2022/11/13 01:51:28;;;;;;;45.63;27.55;;;5.70;99.90;;;;;;5115933;28;20187;-73
2022/11/13 01:53:56;;;;;;;48.80;28.65;;;5.70;99.90;;;;;;5097422;28;20298;-73
2022/11/13 01:56:22;;;;;;;49.05;27.98;;;5.70;99.90;;;;;;5097289;28;20207;-73
2022/11/13 01:58:55;;;;;;;60.50;31.90;;;5.70;99.90;;;;;;5097364;28;20884;-72
2022/11/13 02:01:21;;;;;;;47.28;29.48;;;5.70;99.90;;;;;;5097308;28;20200;-73
2022/11/13 02:03:46;;;;;;;45.50;28.97;;;5.70;99.90;;;;;;5097204;28;20549;-72
2022/11/13 02:06:12;;;;;;;47.43;29.67;;;5.60;99.90;;;;;;5115690;28;20202;-73
2022/11/13 02:08:38;;;;;;;52.50;31.75;;;5.60;99.90;;;;;;5097111;28;20175;-72
2022/11/13 02:11:04;;;;;;;79.80;39.13;;;5.60;99.90;;;;;;5096968;28;20570;-73
2022/11/13 02:13:30;;;;;;;49.53;31.60;;;5.60;99.90;;;;;;5115265;28;20400;-72
2022/11/13 02:15:56;;;;;;;61.57;34.20;;;5.60;99.90;;;;;;5096855;28;20336;-72
2022/11/13 02:18:24;;;;;;;53.80;30.92;;;5.50;99.90;;;;;;5096941;28;20449;-73
2022/11/13 02:21:09;;;;;;;48.58;31.80;;;5.50;99.90;;;;;;5096797;28;20686;-73
2022/11/13 02:24:05;;;;;;;57.25;29.13;;;5.50;99.90;;;;;;5096886;28;20156;-71
2022/11/13 02:26:32;;;;;;;46.85;29.70;;;5.50;99.90;;;;;;5114498;28;20261;-73
2022/11/13 02:28:58;;;;;;;49.92;31.40;;;5.40;99.90;;;;;;5114993;28;20197;-73
2022/11/13 02:31:24;;;;;;;47.20;29.17;;;5.40;99.90;;;;;;5096638;28;20203;-73
2022/11/13 02:33:49;;;;;;;44.73;28.37;;;5.40;99.90;;;;;;5096511;28;20720;-74
2022/11/13 02:36:17;;;;;;;56.00;28.37;;;5.30;99.90;;;;;;5114401;28;20249;-73
2022/11/13 02:38:43;;;;;;;42.40;26.20;;;5.30;99.90;;;;;;5114801;28;20164;-72
2022/11/13 02:41:09;;;;;;;45.97;28.35;;;5.20;99.90;;;;;;5096394;28;20211;-73
2022/11/13 02:43:34;;;;;;;44.37;27.50;;;5.20;99.90;;;;;;5114739;28;20183;-73
2022/11/13 02:46:00;;;;;;;44.17;29.10;;;5.20;99.90;;;;;;5096271;28;20204;-72
2022/11/13 02:48:26;;;;;;;44.17;28.00;;;5.20;99.90;;;;;;5096361;28;20410;-72
2022/11/13 02:50:52;;;;;;;46.07;29.03;;;5.10;99.90;;;;;;5096345;28;20200;-73
2022/11/13 02:53:18;;;;;;;53.10;27.02;;;5.10;99.90;;;;;;5096248;28;20501;-72
2022/11/13 02:55:43;;;;;;;45.57;27.93;;;5.10;99.90;;;;;;5096140;28;20231;-72
2022/11/13 02:58:09;;;;;;;40.50;29.63;;;5.00;99.90;;;;;;5114478;28;20200;-73
2022/11/13 03:00:35;;;;;;;50.60;28.47;;;5.00;99.90;;;;;;5095935;28;20567;-72
2022/11/13 03:03:00;;;;;;;43.67;28.93;;;5.00;99.90;;;;;;5096270;28;20176;-72
2022/11/13 03:05:26;;;;;;;48.03;30.20;;;4.90;99.90;;;;;;5114334;28;20196;-73
2022/11/13 03:07:52;;;;;;;46.27;28.20;;;4.90;99.90;;;;;;5096175;28;20179;-73
2022/11/13 03:10:18;;;;;;;42.28;29.55;;;4.90;99.90;;;;;;5095901;28;20207;-73
2022/11/13 03:12:43;;;;;;;52.77;28.57;;;4.90;99.90;;;;;;5114307;28;20532;-73
2022/11/13 03:15:09;;;;;;;46.23;29.37;;;4.90;99.90;;;;;;5114040;28;20218;-73
2022/11/13 03:17:35;;;;;;;49.20;29.37;;;4.90;99.90;;;;;;5114291;28;20300;-72
2022/11/13 03:20:01;;;;;;;42.43;28.97;;;4.90;99.90;;;;;;5095876;28;20788;-73
2022/11/13 03:22:26;;;;;;;55.73;29.13;;;4.90;99.90;;;;;;5095916;28;20718;-72
2022/11/13 03:24:52;;;;;;;47.73;30.07;;;4.90;99.90;;;;;;5113851;28;20990;-72
2022/11/13 03:27:19;;;;;;;43.30;27.80;;;4.90;99.90;;;;;;5095851;28;20186;-72
2022/11/13 03:29:44;;;;;;;48.58;30.48;;;4.90;99.90;;;;;;5095749;28;20293;-73
2022/11/13 03:32:10;;;;;;;51.57;28.37;;;4.90;99.90;;;;;;5114090;28;20176;-73
2022/11/13 03:34:37;;;;;;;44.30;29.33;;;5.00;99.90;;;;;;5113895;28;20243;-73
2022/11/13 03:37:03;;;;;;;45.22;28.83;;;5.00;99.90;;;;;;5114528;28;20182;-72
2022/11/13 03:39:28;;;;;;;49.37;28.47;;;4.90;99.90;;;;;;5095685;28;20290;-73
2022/11/13 03:41:54;;;;;;;45.07;29.40;;;4.90;99.90;;;;;;5095953;28;20180;-73
2022/11/13 03:44:19;;;;;;;50.27;29.00;;;4.90;99.90;;;;;;5095693;28;20199;-72
2022/11/13 03:46:45;;;;;;;45.43;25.97;;;4.80;99.90;;;;;;5095929;28;20186;-72
2022/11/13 03:49:11;;;;;;;48.13;26.87;;;4.80;99.90;;;;;;5098174;28;20187;-72
2022/11/13 03:51:36;;;;;;;48.00;27.00;;;4.80;99.90;;;;;;5099980;28;20180;-72
2022/11/13 03:54:03;;;;;;;43.90;27.77;;;4.80;99.90;;;;;;5117891;28;20218;-73
2022/11/13 03:56:28;;;;;;;45.67;27.40;;;4.70;99.90;;;;;;5118612;28;20645;-72
2022/11/13 03:58:54;;;;;;;44.03;29.13;;;4.80;99.90;;;;;;5117996;28;20246;-72
2022/11/13 04:01:19;;;;;;;48.23;27.97;;;4.80;99.90;;;;;;5118043;28;20192;-73
2022/11/13 04:03:45;;;;;;;42.13;27.53;;;4.80;99.90;;;;;;5099557;28;20172;-73
2022/11/13 04:06:10;;;;;;;39.90;28.37;;;4.80;99.90;;;;;;5118069;28;20219;-73
2022/11/13 04:08:36;;;;;;;45.57;27.03;;;4.80;99.90;;;;;;5099373;28;20179;-72
2022/11/13 04:11:11;;;;;;;36.30;26.37;;;4.80;99.90;;;;;;5099274;28;20622;-72
2022/11/13 04:13:37;;;;;;;39.90;26.48;;;4.80;99.90;;;;;;5099238;28;20224;-72
2022/11/13 04:16:03;;;;;;;35.27;24.40;;;4.70;99.90;;;;;;5099405;28;20207;-73
2022/11/13 04:18:29;;;;;;;44.45;26.17;;;4.70;99.90;;;;;;5099167;28;20179;-73
2022/11/13 04:21:03;;;;;;;37.50;25.73;;;4.60;99.90;;;;;;5099078;28;20269;-73
2022/11/13 04:23:29;;;;;;;42.10;24.75;;;4.50;99.90;;;;;;5099178;28;20219;-73
2022/11/13 04:25:54;;;;;;;40.13;25.43;;;4.50;99.90;;;;;;5117556;28;20239;-72
2022/11/13 04:28:20;;;;;;;47.30;26.50;;;4.40;99.90;;;;;;5099012;28;20412;-73
2022/11/13 04:30:46;;;;;;;37.17;25.47;;;4.40;99.90;;;;;;5099062;28;20204;-73
2022/11/13 04:33:11;;;;;;;40.17;26.07;;;4.40;99.90;;;;;;5117244;28;20441;-73
2022/11/13 04:35:37;;;;;;;41.27;24.63;;;4.40;99.90;;;;;;5098664;28;20591;-72
2022/11/13 04:38:03;;;;;;;44.58;26.55;;;4.30;99.90;;;;;;5117219;28;20633;-73
2022/11/13 04:40:29;;;;;;;44.87;25.30;;;4.30;99.90;;;;;;5116868;28;20203;-73
2022/11/13 04:42:55;;;;;;;40.13;24.70;;;4.30;99.90;;;;;;5098819;28;20465;-72
2022/11/13 04:45:23;;;;;;;66.77;27.87;;;4.30;99.90;;;;;;5098544;28;20443;-73
2022/11/13 04:47:50;;;;;;;48.50;27.65;;;4.30;99.90;;;;;;5098685;28;20180;-72
2022/11/13 04:50:15;;;;;;;48.63;25.80;;;4.30;99.90;;;;;;5116889;28;20196;-73
2022/11/13 04:52:42;;;;;;;50.23;26.67;;;4.30;99.90;;;;;;5098671;28;20180;-72
2022/11/13 04:55:08;;;;;;;42.08;27.90;;;4.30;99.90;;;;;;5116704;28;20554;-72
2022/11/13 04:57:35;;;;;;;46.30;27.95;;;4.30;99.90;;;;;;5116735;28;20186;-73
2022/11/13 05:00:00;;;;;;;42.05;27.23;;;4.30;99.90;;;;;;5097855;28;20234;-74
2022/11/13 05:02:26;;;;;;;49.03;24.90;;;4.30;99.90;;;;;;5116678;28;20172;-72
2022/11/13 05:04:52;;;;;;;42.90;25.40;;;4.40;99.90;;;;;;5116524;28;20188;-73
2022/11/13 05:07:17;;;;;;;35.70;22.10;;;4.40;99.90;;;;;;5098330;28;20271;-72
2022/11/13 05:09:43;;;;;;;31.80;22.70;;;4.40;99.90;;;;;;5116447;28;20232;-71
2022/11/13 05:12:09;;;;;;;33.43;22.77;;;4.40;99.90;;;;;;5116425;28;20194;-72
2022/11/13 05:14:39;;;;;;;35.10;24.47;;;4.40;99.90;;;;;;5098100;28;20223;-73
2022/11/13 05:17:06;;;;;;;45.70;24.45;;;4.30;99.90;;;;;;5116283;28;20259;-73
2022/11/13 05:19:32;;;;;;;32.67;23.00;;;4.30;99.90;;;;;;5098022;28;20195;-73
2022/11/13 05:21:58;;;;;;;41.65;23.30;;;4.30;99.90;;;;;;5116833;28;20171;-73
2022/11/13 05:24:24;;;;;;;39.10;23.58;;;4.30;99.90;;;;;;5097860;28;20196;-72
2022/11/13 05:26:50;;;;;;;34.10;24.20;;;4.20;99.90;;;;;;5098197;28;20283;-72
2022/11/13 05:29:16;;;;;;;36.75;23.75;;;4.20;99.90;;;;;;5116101;28;20388;-73
2022/11/13 05:31:42;;;;;;;44.75;24.35;;;4.20;99.90;;;;;;5097753;28;20210;-73
2022/11/13 05:34:08;;;;;;;44.30;25.13;;;4.20;99.90;;;;;;5097613;28;20219;-72
2022/11/13 05:36:34;;;;;;;36.20;25.27;;;4.10;99.90;;;;;;5116456;28;20428;-73
2022/11/13 05:39:00;;;;;;;43.80;23.43;;;4.10;99.90;;;;;;5097639;28;20178;-72
2022/11/13 05:41:25;;;;;;;43.50;25.60;;;4.10;99.90;;;;;;5115827;28;20657;-72
2022/11/13 05:43:51;;;;;;;34.60;24.77;;;4.10;99.90;;;;;;5115972;28;20795;-72
2022/11/13 05:46:23;;;;;;;37.53;24.90;;;4.10;99.90;;;;;;5116027;28;20439;-73
2022/11/13 05:48:56;;;;;;;36.92;24.17;;;4.00;99.90;;;;;;5097500;28;20401;-73
2022/11/13 05:51:28;;;;;;;36.92;22.88;;;4.00;99.90;;;;;;5097774;28;20210;-72
2022/11/13 05:53:55;;;;;;;45.50;25.75;;;4.00;99.90;;;;;;5097797;28;20171;-73
2022/11/13 05:56:24;;;;;;;35.03;24.20;;;3.90;99.90;;;;;;5097335;28;20211;-74
2022/11/13 05:58:51;;;;;;;44.90;22.48;;;3.90;99.90;;;;;;5115566;28;20650;-73
2022/11/13 06:01:18;;;;;;;34.50;23.98;;;3.90;99.90;;;;;;5115707;28;20261;-72
2022/11/13 06:03:45;;;;;;;36.83;23.70;;;3.90;99.90;;;;;;5115510;28;20256;-73
2022/11/13 06:06:13;;;;;;;49.97;24.38;;;3.90;99.90;;;;;;5115588;28;20204;-72
2022/11/13 06:08:39;;;;;;;45.55;24.35;;;3.90;99.90;;;;;;5115371;28;20183;-72
2022/11/13 06:11:14;;;;;;;34.00;25.17;;;3.90;99.90;;;;;;5114638;28;20722;-72
2022/11/13 06:13:40;;;;;;;34.33;24.02;;;3.90;99.90;;;;;;5097097;28;20168;-73
2022/11/13 06:16:08;;;;;;;34.10;23.43;;;3.90;99.90;;;;;;5115506;28;20685;-72
2022/11/13 06:18:34;;;;;;;35.40;22.00;;;3.90;99.90;;;;;;5097008;28;20630;-73
2022/11/13 06:21:10;;;;;;;31.48;23.50;;;4.00;99.90;;;;;;5096907;28;20256;-73
2022/11/13 06:23:37;;;;;;;33.47;22.70;;;4.00;99.90;;;;;;5096871;28;20537;-72
2022/11/13 06:26:05;;;;;;;35.95;23.48;;;4.00;99.90;;;;;;5115079;28;20235;-72
2022/11/13 06:28:32;;;;;;;41.83;24.95;;;4.00;99.90;;;;;;5096622;28;20621;-73
2022/11/13 06:31:06;;;;;;;36.97;24.67;;;4.00;99.90;;;;;;5115154;28;20286;-73
2022/11/13 06:33:32;;;;;;;31.80;22.52;;;4.10;99.90;;;;;;5096730;28;20555;-73
2022/11/13 06:36:01;;;;;;;34.90;23.50;;;4.10;99.90;;;;;;5096601;28;20255;-72
2022/11/13 06:38:32;;;;;;;52.95;24.10;;;4.10;99.90;;;;;;5096627;28;20184;-74
2022/11/13 06:40:58;;;;;;;45.35;23.35;;;4.20;99.90;;;;;;5096677;28;20569;-73
2022/11/13 06:43:24;;;;;;;47.08;23.20;;;4.20;99.90;;;;;;5114797;28;20667;-74
2022/11/13 06:45:49;;;;;;;46.77;27.20;;;4.20;99.90;;;;;;5114682;28;20199;-73
2022/11/13 06:48:15;;;;;;;44.67;24.53;;;4.20;99.90;;;;;;5096398;28;20172;-72
2022/11/13 06:50:41;;;;;;;40.37;23.87;;;4.30;99.90;;;;;;5096307;28;20536;-73
2022/11/13 06:53:07;;;;;;;36.43;22.80;;;4.40;99.90;;;;;;5114670;28;20659;-72
2022/11/13 06:55:32;;;;;;;42.70;25.50;;;4.40;99.90;;;;;;5114312;28;20251;-73
2022/11/13 06:57:58;;;;;;;39.07;25.03;;;4.50;99.90;;;;;;5096260;28;20284;-72
2022/11/13 07:00:24;;;;;;;34.17;23.80;;;4.60;99.90;;;;;;5114481;28;20195;-72
2022/11/13 07:02:49;;;;;;;36.90;24.23;;;4.60;99.90;;;;;;5096103;28;20427;-72
2022/11/13 07:05:15;;;;;;;36.63;24.47;;;4.80;99.90;;;;;;5114356;28;20207;-73
2022/11/13 07:07:41;;;;;;;35.85;25.08;;;4.90;99.90;;;;;;5096142;28;20215;-73
2022/11/13 07:10:07;;;;;;;33.83;23.53;;;5.00;99.90;;;;;;5114078;28;20260;-73
2022/11/13 07:12:32;;;;;;;35.10;24.87;;;5.10;99.90;;;;;;5096079;28;20668;-73
2022/11/13 07:14:58;;;;;;;32.57;23.37;;;5.20;99.90;;;;;;5095858;28;20470;-73
2022/11/13 07:17:24;;;;;;;35.50;24.30;;;5.40;99.90;;;;;;5095929;28;20176;-73
2022/11/13 07:19:50;;;;;;;33.03;25.00;;;5.50;99.90;;;;;;5095817;28;20416;-73
2022/11/13 07:22:15;;;;;;;33.67;24.47;;;5.60;99.90;;;;;;5113908;28;20188;-72
2022/11/13 07:24:41;;;;;;;39.63;23.60;;;5.80;99.90;;;;;;5113903;28;20431;-73
2022/11/13 07:27:08;;;;;;;45.67;28.85;;;6.00;99.90;;;;;;5114058;28;20227;-72
2022/11/13 07:29:35;;;;;;;40.07;28.10;;;6.20;99.90;;;;;;5114091;28;20292;-73
2022/11/13 07:32:01;;;;;;;44.35;28.70;;;6.50;99.90;;;;;;5114584;28;20167;-73
2022/11/13 07:34:27;;;;;;;40.58;28.60;;;6.70;99.90;;;;;;5095621;28;20220;-73
2022/11/13 07:36:52;;;;;;;41.60;28.90;;;6.90;99.90;;;;;;5114545;28;20168;-73
2022/11/13 07:39:18;;;;;;;30.47;24.53;;;7.30;99.90;;;;;;5095804;28;20712;-73
2022/11/13 07:41:46;;;;;;;32.67;22.97;;;7.80;99.90;;;;;;5095779;28;20164;-73
2022/11/13 07:44:11;;;;;;;35.65;24.30;;;8.40;99.90;;;;;;5113872;28;20179;-73
2022/11/13 07:46:37;;;;;;;33.10;23.30;;;9.00;99.90;;;;;;5114526;28;20254;-73
2022/11/13 07:49:02;;;;;;;32.77;22.40;;;9.80;99.90;;;;;;5113900;28;20209;-73
2022/11/13 07:51:28;;;;;;;26.50;20.03;;;10.60;99.90;;;;;;5095741;28;20220;-73
2022/11/13 07:53:54;;;;;;;26.50;20.43;;;11.50;99.90;;;;;;5113887;28;20180;-73
2022/11/13 07:56:21;;;;;;;26.67;19.27;;;12.40;99.90;;;;;;5095385;28;20191;-73
2022/11/13 07:58:47;;;;;;;36.03;21.30;;;13.20;99.90;;;;;;5095655;28;20499;-73
2022/11/13 08:01:13;;;;;;;23.37;17.97;;;14.00;99.90;;;;;;5114083;28;20528;-73
2022/11/13 08:03:38;;;;;;;26.40;18.70;;;14.80;99.90;;;;;;5095492;28;20424;-73
2022/11/13 08:06:06;;;;;;;23.40;18.87;;;15.50;99.90;;;;;;5113665;28;20692;-73
2022/11/13 08:08:32;;;;;;;27.27;19.70;;;16.20;99.90;;;;;;5113815;28;20180;-74
2022/11/13 08:11:01;;;;;;;21.87;17.87;;;16.80;99.90;;;;;;5095279;28;20435;-74
2022/11/13 08:13:27;;;;;;;24.67;18.27;;;17.40;99.90;;;;;;5113682;28;20458;-73
2022/11/13 08:15:52;;;;;;;23.37;19.00;;;17.70;99.90;;;;;;5095265;28;20511;-73
2022/11/13 08:18:18;;;;;;;22.80;18.07;;;17.70;99.90;;;;;;5113932;28;20214;-73
2022/11/13 08:20:44;;;;;;;21.83;18.20;;;17.70;99.90;;;;;;5113777;28;20242;-73
2022/11/13 08:23:09;;;;;;;22.73;17.30;;;17.70;99.90;;;;;;5095367;28;20632;-74
2022/11/13 08:25:35;;;;;;;24.60;18.83;;;17.70;99.90;;;;;;5095341;28;20314;-74
2022/11/13 08:28:01;;;;;;;26.53;20.27;;;17.70;99.90;;;;;;5113578;28;20652;-73
2022/11/13 08:30:29;;;;;;;22.77;19.70;;;17.90;99.90;;;;;;5113528;28;20489;-73
2022/11/13 08:32:54;;;;;;;24.10;20.00;;;18.10;99.90;;;;;;5113660;28;20648;-73
2022/11/13 08:35:20;;;;;;;23.93;20.60;;;18.20;99.90;;;;;;5115771;28;20475;-73
2022/11/13 08:37:46;;;;;;;26.43;19.47;;;18.10;99.90;;;;;;5098880;28;20652;-73
2022/11/13 08:40:12;;;;;;;29.90;20.53;;;17.80;99.90;;;;;;5117101;28;20435;-73
2022/11/13 08:42:37;;;;;;;29.90;22.87;;;17.30;99.90;;;;;;5117150;28;20208;-73
2022/11/13 08:45:04;;;;;;;31.47;23.53;;;16.90;99.90;;;;;;5098571;28;20211;-73
2022/11/13 08:47:29;;;;;;;29.90;24.07;;;16.50;99.90;;;;;;5098788;28;20546;-73
2022/11/13 08:49:55;;;;;;;30.83;23.80;;;16.10;99.90;;;;;;5098530;28;20436;-74
2022/11/13 08:52:21;;;;;;;30.20;22.87;;;15.70;99.90;;;;;;5116896;28;20628;-73
2022/11/13 08:54:47;;;;;;;30.03;22.10;;;15.50;99.90;;;;;;5098382;28;20462;-73
2022/11/13 08:57:13;;;;;;;25.70;20.73;;;15.50;99.90;;;;;;5116850;28;20989;-73
2022/11/13 08:59:38;;;;;;;29.37;22.00;;;15.60;99.90;;;;;;5098475;28;20589;-73
2022/11/13 09:02:04;;;;;;;29.13;21.77;;;15.70;99.90;;;;;;5116632;28;20216;-73
2022/11/13 09:04:30;;;;;;;27.73;20.50;;;15.90;99.90;;;;;;5098344;28;20562;-73
2022/11/13 09:06:56;;;;;;;27.97;21.97;;;16.20;99.90;;;;;;5098572;28;20266;-73
2022/11/13 09:09:22;;;;;;;24.20;19.37;;;16.40;99.90;;;;;;5098263;28;20448;-73
2022/11/13 09:11:48;;;;;;;23.93;20.03;;;16.50;99.90;;;;;;5098507;28;20176;-74
2022/11/13 09:14:14;;;;;;;27.53;20.50;;;16.50;99.90;;;;;;5097965;28;20471;-73
2022/11/13 09:16:40;;;;;;;23.47;20.13;;;16.40;99.90;;;;;;5116406;28;20929;-73
2022/11/13 09:19:05;;;;;;;25.87;20.03;;;16.40;99.90;;;;;;5098099;28;20408;-73
2022/11/13 09:21:31;;;;;;;28.60;19.13;;;16.40;99.90;;;;;;5116786;28;20511;-74
2022/11/13 09:23:57;;;;;;;30.37;20.23;;;16.40;99.90;;;;;;5116419;28;20183;-73
2022/11/13 09:26:23;;;;;;;27.47;21.23;;;16.30;99.90;;;;;;5097861;28;20333;-73
2022/11/13 09:28:48;;;;;;;25.70;19.67;;;16.30;99.90;;;;;;5097981;28;20658;-73
2022/11/13 09:31:14;;;;;;;27.60;21.37;;;16.10;99.90;;;;;;5115938;28;20607;-74
2022/11/13 09:33:40;;;;;;;31.77;23.37;;;16.10;99.90;;;;;;5116233;28;20229;-73
2022/11/13 09:36:13;;;;;;;26.10;20.00;;;16.00;99.90;;;;;;5116236;28;20219;-73
2022/11/13 09:38:39;;;;;;;32.13;21.87;;;15.90;99.90;;;;;;5097705;28;20183;-73
2022/11/13 09:41:10;;;;;;;30.13;20.53;;;15.90;99.90;;;;;;5116139;28;20817;-73
2022/11/13 09:43:58;;;;;;;28.57;19.80;;;16.00;99.90;;;;;;5097672;28;20457;-73
2022/11/13 09:46:47;;;;;;;28.40;22.53;;;15.90;99.90;;;;;;5115825;28;20420;-74
2022/11/13 09:49:36;;;;;;;28.23;20.60;;;15.90;99.90;;;;;;5115737;28;20399;-73
2022/11/13 09:52:09;;;;;;;26.33;18.80;;;15.80;99.90;;;;;;5115756;28;20503;-73
2022/11/13 09:54:35;;;;;;;25.07;18.10;;;15.80;99.90;;;;;;5115667;28;20468;-74
2022/11/13 09:57:28;;;;;;;23.37;16.53;;;15.80;99.90;;;;;;5116342;28;20416;-73
2022/11/13 10:00:04;;;;;;;21.77;16.97;;;15.70;99.90;;;;;;5115527;28;20200;-73
2022/11/13 10:02:54;;;;;;;23.87;17.20;;;15.60;99.90;;;;;;5115513;28;20400;-74
2022/11/13 10:05:44;;;;;;;23.80;15.20;;;15.60;99.90;;;;;;5115411;28;20442;-74
2022/11/13 10:08:13;;;;;;;24.33;14.80;;;15.60;99.90;;;;;;5097153;28;20818;-74
2022/11/13 10:10:46;;;;;;;21.10;14.97;;;15.60;99.90;;;;;;5096983;28;20477;-73
2022/11/13 10:13:31;;;;;;;19.13;14.20;;;15.60;99.90;;;;;;5115441;28;20407;-73
2022/11/13 10:16:08;;;;;;;20.67;14.47;;;15.60;99.90;;;;;;5096856;28;20476;-73
2022/11/13 10:18:36;;;;;;;19.00;13.43;;;15.60;99.90;;;;;;5115317;28;20439;-73
2022/11/13 10:21:30;;;;;;;17.53;13.23;;;15.60;99.90;;;;;;5097054;28;21003;-73
2022/11/13 10:24:01;;;;;;;23.43;16.03;;;15.60;99.90;;;;;;5096910;28;20503;-74
2022/11/13 10:26:28;;;;;;;21.87;14.90;;;15.50;99.90;;;;;;5096952;28;20508;-74
2022/11/13 10:29:01;;;;;;;20.67;14.43;;;15.60;99.90;;;;;;5115163;28;20454;-73
2022/11/13 10:31:27;;;;;;;16.77;13.40;;;15.60;99.90;;;;;;5115322;28;20408;-73
2022/11/13 10:33:54;;;;;;;22.93;16.33;;;15.50;99.90;;;;;;5114872;28;20437;-73
2022/11/13 10:36:43;;;;;;;26.00;15.97;;;15.50;99.90;;;;;;5115137;28;20203;-73
2022/11/13 10:39:09;;;;;;;21.97;15.30;;;15.50;99.90;;;;;;5096522;28;20439;-73
2022/11/13 10:41:53;;;;;;;18.23;14.63;;;15.60;99.90;;;;;;5115401;28;20420;-73
2022/11/13 10:44:32;;;;;;;19.53;15.10;;;15.60;99.90;;;;;;5114659;28;20454;-73
2022/11/13 10:47:16;;;;;;;20.13;15.10;;;15.60;99.90;;;;;;5115273;28;20496;-73
2022/11/13 10:49:42;;;;;;;19.10;14.80;;;15.70;99.90;;;;;;5114640;28;20428;-74
2022/11/13 10:52:20;;;;;;;22.00;15.23;;;15.70;99.90;;;;;;5114597;28;20454;-73
2022/11/13 10:54:47;;;;;;;19.30;16.20;;;15.80;99.90;;;;;;5096016;28;20211;-73
2022/11/13 10:57:42;;;;;;;20.53;14.60;;;15.80;99.90;;;;;;5114034;28;20808;-74
2022/11/13 11:00:26;;;;;;;21.37;15.10;;;15.80;99.90;;;;;;5079186;28;20443;-74
2022/11/13 11:02:52;;;;;;;19.03;13.80;;;15.80;99.90;;;;;;5114429;28;20395;-73
2022/11/13 11:05:23;;;;;;;20.13;16.50;;;15.80;99.90;;;;;;5114254;28;20436;-74
2022/11/13 11:07:49;;;;;;;23.43;15.87;;;15.70;99.90;;;;;;5103654;28;20680;-73
2022/11/13 11:10:35;;;;;;;19.97;15.73;;;15.70;99.90;;;;;;5074728;28;20444;-74
2022/11/13 11:13:11;;;;;;;22.30;15.80;;;15.70;99.90;;;;;;5107806;28;20774;-73
2022/11/13 11:15:46;;;;;;;22.07;15.23;;;15.80;99.90;;;;;;5114211;28;20478;-73
2022/11/13 11:18:18;;;;;;;21.73;16.07;;;15.70;99.90;;;;;;5114253;28;20400;-73
2022/11/13 11:20:50;;;;;;;19.57;14.93;;;15.80;99.90;;;;;;5095756;28;20987;-73
2022/11/13 11:23:27;;;;;;;23.27;16.17;;;15.80;99.90;;;;;;5114186;28;20936;-73
2022/11/13 11:26:10;;;;;;;18.70;14.57;;;15.80;99.90;;;;;;5095863;28;20479;-73
2022/11/13 11:28:58;;;;;;;18.17;13.53;;;15.80;99.90;;;;;;5114297;28;20920;-73
2022/11/13 11:31:40;;;;;;;18.30;14.30;;;15.90;99.90;;;;;;5095843;28;20440;-73
2022/11/13 11:34:29;;;;;;;20.37;15.23;;;15.90;99.90;;;;;;5113908;28;20393;-74
2022/11/13 11:37:12;;;;;;;20.77;14.70;;;15.90;99.90;;;;;;5112944;28;20443;-74
2022/11/13 11:40:25;;;;;;;16.70;13.37;;;15.90;99.90;;;;;;5095781;28;20492;-74
2022/11/13 11:43:10;;;;;;;18.00;13.47;;;15.90;99.90;;;;;;5100759;28;20436;-73
2022/11/13 11:45:43;;;;;;;20.77;13.67;;;15.90;99.90;;;;;;5111405;28;20447;-73
2022/11/13 11:48:16;;;;;;;20.20;14.30;;;15.90;99.90;;;;;;5113681;28;20399;-74
2022/11/13 11:50:48;;;;;;;19.80;13.30;;;16.00;99.90;;;;;;5114227;28;20447;-74
2022/11/13 11:53:23;;;;;;;21.83;13.60;;;16.00;99.90;;;;;;5095594;28;20496;-73
2022/11/13 11:56:06;;;;;;;22.07;12.17;;;16.10;99.90;;;;;;5113708;28;21010;-74
2022/11/13 11:58:40;;;;;;;18.53;11.53;;;16.10;99.90;;;;;;5113831;28;20416;-73
2022/11/13 12:01:29;;;;;;;16.20;12.10;;;16.10;99.90;;;;;;5095519;28;20550;-73
2022/11/13 12:03:57;;;;;;;15.53;11.60;;;16.10;99.90;;;;;;5058249;28;20420;-74
2022/11/13 12:06:44;;;;;;;19.80;12.50;;;16.10;99.90;;;;;;5095217;28;20444;-73
2022/11/13 12:09:30;;;;;;;19.27;13.40;;;16.10;99.90;;;;;;5114497;28;20397;-73
2022/11/13 12:12:17;;;;;;;15.97;11.80;;;16.10;99.90;;;;;;5117615;28;20508;-75
2022/11/13 12:15:01;;;;;;;18.73;13.57;;;16.10;99.90;;;;;;5117487;28;20604;-73
2022/11/13 12:17:59;;;;;;;18.70;12.40;;;16.10;99.90;;;;;;5099395;28;20473;-73
2022/11/13 12:20:31;;;;;;;25.07;16.27;;;16.20;99.90;;;;;;5099427;28;20479;-73
2022/11/13 12:23:43;;;;;;;27.37;18.80;;;16.20;99.90;;;;;;5099272;28;20953;-73
2022/11/13 12:26:39;;;;;;;17.10;11.43;;;16.20;99.90;;;;;;5099083;28;20473;-73
2022/11/13 12:29:24;;;;;;;18.27;13.43;;;16.20;99.90;;;;;;5088153;28;20863;-73
2022/11/13 12:32:27;;;;;;;20.80;14.00;;;16.20;99.90;;;;;;5099376;28;20778;-74
2022/11/13 12:34:57;;;;;;;20.57;16.03;;;16.20;99.90;;;;;;5113588;28;20494;-73
2022/11/13 12:37:32;;;;;;;20.03;13.70;;;16.20;99.90;;;;;;5096568;28;20401;-74
2022/11/13 12:40:05;;;;;;;18.10;13.20;;;16.20;99.90;;;;;;5085273;28;20451;-74
2022/11/13 12:42:42;;;;;;;22.70;19.23;;;16.20;99.90;;;;;;5076576;28;20421;-73
2022/11/13 12:45:14;;;;;;;31.50;24.00;;;16.20;99.90;;;;;;5094495;28;20436;-73